Saint-Simon-De-Rimouski, Canada
Current Conditions -  °F | °C
As of 3:00 AM on Wednesday 26 Nov 2014 (Local Time) from CYYY Reporting Station
Overcast Overcast  
Wind Chill: 28°   Ceiling: 4000
Heat Index: 36°   Visibility: 15mi
Dew Point: 30°   Wind: 12mph
Humidity: 81%   Direction: 250°WSW
Pressure: 29.91"   Gusts: NA
Location:  48.2°N, 69.02°W
Report Text: CYYY 260800Z 25010KT 15SM OVC040 02/M01 A2991 RMK SC8 PRESRR SLP131
Loading
Personal Weather Stations






























Interactive Weather Map New forecast layout! Learn more

10-Day Weather Forecast

Advertisements
Track Severe Weather on mobile